Cotati, CA (94926)

12:44 PM PDT on September 29, 2016 (GMT -0700)
Cypress Ave | | Change Station

Elev 151 ft 38.32 °N, 122.71 °W | Updated 26 seconds ago

Clear
Clear
64.0 °F
Feels Like 64.0 °F
N
1.3
Wind Variable Wind from East
Gusts 2.5 mph

Today
High -- | Low -- °F
--% Chance of Precip.
Yesterday
High -- | Low -- °F
Precip. -- in
Pressure 30.11 in
Visibility 10.0 miles
Clouds Clear
Dew Point 48 °F
Humidity 56%
Rainfall 0.00 in
Snow Depth Not available.
7:05 AM 6:55 PM
Waning Crescent, 1% visible
METAR KO69 291935Z AUTO 25007KT 10SM CLR 18/10 A3011 RMK AO1
Pressure 30.11 in
Visibility 10.0 miles
Clouds Clear
Dew Point 48 °F
Humidity 56%
Rainfall 0.00 in
Snow Depth Not available.
7:05 AM 6:55 PM
Waning Crescent, 1% visible
METAR KO69 291935Z AUTO 25007KT 10SM CLR 18/10 A3011 RMK AO1

10-Day Weather Forecast

Almanac

Astronomy

Sep. 29, 2016 Rise Set
Actual Time
Civil Twilight
Nautical Twilight
Astronomical Twilight
Moon
Length of Visible Light
Length of Day
Tomorrow will be .
, % of the Moon is Illuminated

Today's Extremes

State Highs State Lows

Community

WunderPhotos

Upload Photos

1,942,551 photos uploaded!

WunderBlog® & News

Nearby

Air Quality

  Air Quality AQ Index Pollutant
Not available.

Snow Depth

Station Depth Elevation

Earthquake Activity

City Distance Mag. Time & Date
Minimum magnitude displayed is 2.5.

Coastal Water Temperatures

Place Temperature

Stations

Nearby Weather Stations

Station Location Temp. Windchill Dew Point Humidity Wind Precip. Elev Updated Type
                   

Watches & Warnings

There are currently no watches in effect.